WEATHER DATA

YESTERDAY
Time Temp. Dewp. Hum. Bar. 1h Prec. 24h Prec.
00:05 14.5 12.2 86 1017.1 0.0000 0.0000
00:26 14.4 12.1 86 1017 0.0000 0.0000
00:35 14.3 12 86 1017.1 0.0000 0.0000
00:45 14.3 12 86 1017.1 0.0000 0.0000
00:56 14.3 12.2 87 1017 0.0000 0.0000
01:06 14.3 12.2 87 1017 0.0000 0.0000
01:15 14.2 12.1 87 1017 0.0000 0.0000
01:26 14 12 88 1017.1 0.0000 0.0000
01:36 14 12 88 1017.1 0.0000 0.0000
01:46 13.9 11.9 88 1017 0.0000 0.0000
01:56 13.9 12.1 89 1017 0.0000 0.0000
02:06 13.9 12.1 89 1017 0.0000 0.0000
02:16 13.9 12.1 89 1016.9 0.0000 0.0000
02:26 13.9 12.1 89 1016.9 0.0000 0.0000
02:46 13.5 11.2 86 1016.9 0.0000 0.0000
02:56 13.3 10.8 85 1016.9 0.0000 0.0000
03:11 13 10 82 1016.7 0.0000 0.0000
03:21 12.8 9.4 80 1016.7 0.0000 0.0000
03:31 12.6 9.1 79 1016.8 0.0000 0.0000
03:41 12.4 8.9 79 1016.8 0.0000 0.0000
03:51 12.2 8.7 79 1016.8 0.0000 0.0000
04:01 12.1 8.8 80 1016.7 0.0000 0.0000
04:11 12 8.7 80 1016.7 0.0000 0.0000
04:22 11.9 8.6 80 1016.7 0.0000 0.0000
04:31 11.8 8.5 80 1016.6 0.0000 0.0000
04:41 11.7 8.4 80 1016.5 0.0000 0.0000
04:52 11.6 8.3 80 1016.5 0.0000 0.0000
05:02 11.5 8.4 81 1016.5 0.0000 0.0000
05:12 11.4 8.3 81 1016.4 0.0000 0.0000
05:21 11.3 8.2 81 1016.6 0.0000 0.0000
05:32 11.2 8.1 81 1016.6 0.0000 0.0000
05:46 11.2 8.2 82 1016.6 0.0000 0.0000
05:56 11.1 8.1 82 1016.7 0.0000 0.0000
06:16 10.9 8 82 1016.7 0.0000 0.0000
06:26 10.9 8.1 83 1016.8 0.0000 0.0000
06:47 10.8 8 83 1017 0.0000 0.0000
06:57 10.6 7.8 83 1017.2 0.0000 0.0000
07:07 10.6 8.2 85 1017.2 0.0000 0.0000
07:17 10.7 8.5 86 1017.3 0.0000 0.0000
07:27 10.9 9 88 1017.4 0.0000 0.0000
07:37 11.1 9.2 88 1017.4 0.0000 0.0000
07:47 11.3 9.6 89 1017.4 0.0000 0.0000
07:57 11.6 9.7 88 1017.3 0.0000 0.0000
08:07 11.8 9.9 88 1017.4 0.0000 0.0000
08:17 12 10.1 88 1017.4 0.0000 0.0000
08:27 12.5 10.6 88 1017.4 0.0000 0.0000
08:37 13.4 11.6 89 1017.6 0.0000 0.0000
08:47 14.6 12.3 86 1017.6 0.0000 0.0000
08:58 15.5 12.6 83 1017.6 0.0641 0.1000
09:07 15.6 12.2 80 1017.6 0.0641 0.1000
09:17 15.5 11.7 78 1017.6 0.0641 0.1000
09:28 15.4 11.8 79 1017.6 0.0641 0.1000
09:47 16.1 12.3 78 1017.8 0.0000 0.1000
09:57 16.4 12.2 76 1017.9 0.0000 0.1000
10:18 17.6 12.7 73 1017.9 0.0000 0.1000
10:28 18.1 12.8 71 1018 0.0000 0.1000
10:38 18.6 13 70 1018.1 0.0000 0.1000
10:48 18.8 13 69 1018.1 0.0000 0.1000
10:58 19.2 13.2 68 1018.1 0.0000 0.1000
11:08 19.8 13.3 66 1018.3 0.0000 0.1000
11:18 20 13 64 1018.1 0.0000 0.1000
11:28 20.2 12.9 63 1018.3 0.0000 0.1000
11:38 20.6 13.3 63 1018.3 0.0000 0.1000
11:49 20.2 12.2 60 1018.3 0.0000 0.1000
11:58 20.3 12.8 62 1018.4 0.0000 0.1000
12:08 20.7 12.9 61 1018.5 0.0000 0.1000
12:18 20.6 12.3 59 1018.5 0.0000 0.1000
12:36 20.8 12 57 1018.5 0.0000 0.1000
12:47 20.9 11.8 56 1018.3 0.0000 0.1000
12:57 21.3 11.6 54 1018.4 0.0000 0.1000
13:17 21.1 12 56 1018.3 0.0000 0.1000
13:27 21.5 12.1 55 1018.1 0.0000 0.1000
13:46 21.7 12.3 55 1018 0.0000 0.1000
13:57 20.9 11.5 55 1018 0.0000 0.1000
14:07 21.5 12.1 55 1018 0.0000 0.1000
14:17 21.5 12.6 57 1017.9 0.0000 0.1000
14:27 22.2 12.5 54 1017.9 0.0000 0.1000
14:47 22 12.3 54 1017.8 0.0000 0.1000
15:08 21.8 11.8 53 1017.9 0.0000 0.1000
15:17 21.4 11.7 54 1018 0.0000 0.1000
15:27 20.9 11.5 55 1018 0.0000 0.1000
15:38 20.9 11.8 56 1018 0.0000 0.1000
15:48 20.6 11.8 57 1017.9 0.0000 0.1000
15:57 20.5 12 58 1018 0.0000 0.1000
16:07 20.6 12.1 58 1018 0.0000 0.1000
16:18 20.4 11.9 58 1018 0.0000 0.1000
16:28 20 11.8 59 1018 0.0000 0.1000
16:37 20.1 12.1 60 1018.1 0.0000 0.1000
16:48 19.6 11.6 60 1018.1 0.0000 0.1000
16:58 19 11.3 61 1018.1 0.0000 0.1000
17:08 18.7 11.5 63 1018.1 0.0000 0.1000
17:18 18.3 11.4 64 1018.3 0.0000 0.1000
17:28 18.1 11.4 65 1018.3 0.0000 0.1000
17:38 17.7 11 65 1018.4 0.0000 0.1000
17:48 17.1 10.9 67 1018.3 0.0000 0.1000
17:59 16.7 11 69 1018.3 0.0000 0.1000
18:08 16.5 11 70 1018.3 0.0000 0.1000
18:18 16.3 11 71 1018.1 0.0000 0.1000
18:28 16.4 11.3 72 1018.3 0.0000 0.1000
18:39 16.7 11.4 71 1018.1 0.0000 0.1000
18:48 16.6 11.3 71 1018.1 0.0000 0.1000
18:58 16.5 11.4 72 1018.1 0.0000 0.1000
19:09 16.6 11.3 71 1018 0.0000 0.1000
19:19 16.4 11.1 71 1018.1 0.0000 0.1000
19:29 16.3 11.2 72 1018.1 0.0000 0.1000
19:39 16.2 11.2 72 1018.1 0.0000 0.1000
19:49 16.1 11.1 72 1018.1 0.0000 0.1000
19:59 16 11.2 73 1018.1 0.0000 0.1000
20:09 15.9 11.1 73 1018.1 0.0000 0.1000
20:19 15.8 11.2 74 1018.3 0.0000 0.1000
20:29 15.7 11.1 74 1018.3 0.0000 0.1000
20:39 15.6 11 74 1018.3 0.0000 0.1000
20:49 15.4 11 75 1018.3 0.0000 0.1000
20:59 15.4 11.2 76 1018.4 0.0000 0.1000
21:09 15.3 11.1 76 1018.5 0.0000 0.1000
21:19 15.3 11.1 76 1018.4 0.0000 0.1000
21:30 15.2 11.2 77 1018.5 0.0000 0.1000
21:40 15.2 11.2 77 1018.5 0.0000 0.1000
21:49 15.2 11.2 77 1018.5 0.0000 0.1000
22:00 15.1 11.3 78 1018.6 0.0000 0.1000
22:10 15 11.2 78 1018.6 0.0000 0.1000
22:20 14.9 11.3 79 1018.8 0.0000 0.1000
22:29 14.9 11.3 79 1018.9 0.0000 0.1000
22:40 14.7 11.1 79 1019 0.0000 0.1000
22:50 14.5 10.9 79 1019 0.0000 0.1000
23:00 14.3 10.7 79 1019.1 0.0000 0.1000
23:10 14.1 10.5 79 1019.2 0.0000 0.1000
23:20 13.9 10.3 79 1019.3 0.0000 0.1000
23:30 13.7 10.1 79 1019.3 0.0000 0.1000
23:40 13.6 10.2 80 1019.4 0.0000 0.1000
23:51 13.4 10 80 1019.3 0.0000 0.1000

DAY STATISTIC

2019-05-24
TEMPERATURE
AVERAGE
15.8
HIGH
22.2
14:27
LOW
10.6
06:57
PRESSURE
AVERAGE
1017.8
HIGH
1019.4
23:40
LOW
1016.4
05:12
DEWPOINT
AVERAGE
11.0
HIGH
13.3
11:08
LOW
7.8
06:57
HUMIDITY
AVERAGE
74
HIGH
89
01:56
LOW
53
15:08
PRECIPITATION
RAIN HOUR
0.1
RAIN DAY
0.1
TEMPERATURE (°C)
LOW
10.6
HIGH
22.2
AVERAGE
15.8
PRESSURE (hpa)
LOW
1016.4
HIGH
1019.4
AVERAGE
1017.8
DEVICE